ROT415K LROP-LRTM
Flight info
| Callsign | ROT415K |
|---|---|
| Flight time | 0h 40m |
| Altitude | 16000 |
| Route | DENAK DCT DOKUD |
| Aircraft | AT76/M-SDFGIRY/S |
Departure
| Time | 2026-05-07 18:05 |
|---|---|
| Airport | Bucharest Henri Coandă International Airport (LROP) |
Arrival
| Time | 2026-05-07 18:45 |
|---|---|
| Airport | Târgu Mureş Transilvania International Airport (LRTM) |
| Time | Latitude | Longitude | Altitude | Speed | Heading |
|---|---|---|---|---|---|
| 2026-05-07 17:19 | 44.56889 | 26.08191 | 317 ft | 0 kts | 354° |
| 2026-05-07 17:49 | 44.56893 | 26.08191 | 315 ft | 1 kts | 354° |
| 2026-05-07 17:49 | 44.56902 | 26.08189 | 316 ft | 6 kts | 354° |
| 2026-05-07 17:49 | 44.56933 | 26.08187 | 316 ft | 5 kts | 6° |
| 2026-05-07 17:50 | 44.56945 | 26.08217 | 317 ft | 4 kts | 84° |
| 2026-05-07 17:50 | 44.56948 | 26.08264 | 317 ft | 5 kts | 84° |
| 2026-05-07 17:50 | 44.56952 | 26.08321 | 317 ft | 6 kts | 81° |
| 2026-05-07 17:50 | 44.56954 | 26.08346 | 317 ft | 1 kts | 89° |
| 2026-05-07 17:51 | 44.56949 | 26.08360 | 316 ft | 3 kts | 118° |
| 2026-05-07 17:51 | 44.56933 | 26.08388 | 317 ft | 4 kts | 136° |
| 2026-05-07 17:51 | 44.56905 | 26.08421 | 317 ft | 6 kts | 131° |
| 2026-05-07 17:51 | 44.56897 | 26.08469 | 317 ft | 5 kts | 87° |
| 2026-05-07 17:52 | 44.56905 | 26.08523 | 317 ft | 6 kts | 61° |
| 2026-05-07 17:52 | 44.56943 | 26.08545 | 317 ft | 7 kts | 355° |
| 2026-05-07 17:52 | 44.56995 | 26.08539 | 316 ft | 8 kts | 356° |
| 2026-05-07 17:52 | 44.57058 | 26.08528 | 316 ft | 10 kts | 354° |
| 2026-05-07 17:53 | 44.57130 | 26.08519 | 317 ft | 11 kts | 354° |
| 2026-05-07 17:53 | 44.57196 | 26.08510 | 317 ft | 9 kts | 354° |
| 2026-05-07 17:53 | 44.57261 | 26.08500 | 316 ft | 10 kts | 354° |
| 2026-05-07 17:53 | 44.57326 | 26.08491 | 315 ft | 9 kts | 354° |
| 2026-05-07 17:54 | 44.57381 | 26.08483 | 317 ft | 7 kts | 354° |
| 2026-05-07 17:54 | 44.57403 | 26.08480 | 316 ft | 2 kts | 354° |
| 2026-05-07 17:54 | 44.57435 | 26.08475 | 316 ft | 6 kts | 354° |
| 2026-05-07 17:54 | 44.57474 | 26.08469 | 316 ft | 6 kts | 354° |
| 2026-05-07 17:55 | 44.57500 | 26.08465 | 316 ft | 1 kts | 354° |
| 2026-05-07 17:55 | 44.57506 | 26.08465 | 316 ft | 0 kts | 354° |
| 2026-05-07 18:03 | 44.57507 | 26.08464 | 317 ft | 1 kts | 354° |
| 2026-05-07 18:03 | 44.57532 | 26.08461 | 316 ft | 6 kts | 354° |
| 2026-05-07 18:03 | 44.57582 | 26.08454 | 318 ft | 8 kts | 354° |
| 2026-05-07 18:04 | 44.57639 | 26.08449 | 319 ft | 9 kts | 5° |
| 2026-05-07 18:04 | 44.57668 | 26.08494 | 320 ft | 5 kts | 88° |
| 2026-05-07 18:04 | 44.57670 | 26.08516 | 320 ft | 0 kts | 83° |
| 2026-05-07 18:04 | 44.57672 | 26.08549 | 320 ft | 21 kts | 85° |
| 2026-05-07 18:05 | 44.57713 | 26.09076 | 316 ft | 87 kts | 84° |
| 2026-05-07 18:05 | 44.57808 | 26.10110 | 528 ft | 112 kts | 82° |
| 2026-05-07 18:05 | 44.57913 | 26.11194 | 1011 ft | 119 kts | 81° |
| 2026-05-07 18:05 | 44.58076 | 26.12329 | 1504 ft | 121 kts | 81° |
| 2026-05-07 18:06 | 44.58258 | 26.13498 | 2051 ft | 124 kts | 83° |
| 2026-05-07 18:06 | 44.58396 | 26.14703 | 2579 ft | 126 kts | 85° |
| 2026-05-07 18:06 | 44.58500 | 26.15999 | 2739 ft | 146 kts | 88° |
| 2026-05-07 18:06 | 44.58690 | 26.17519 | 2759 ft | 174 kts | 67° |
| 2026-05-07 18:07 | 44.59642 | 26.18663 | 2870 ft | 190 kts | 19° |
| 2026-05-07 18:07 | 44.60929 | 26.18570 | 3162 ft | 187 kts | 333° |
| 2026-05-07 18:07 | 44.62036 | 26.17646 | 3547 ft | 185 kts | 326° |
| 2026-05-07 18:07 | 44.63122 | 26.16690 | 3967 ft | 184 kts | 324° |
| 2026-05-07 18:08 | 44.64198 | 26.15718 | 4381 ft | 184 kts | 324° |
| 2026-05-07 18:08 | 44.65268 | 26.14734 | 4785 ft | 184 kts | 324° |
| 2026-05-07 18:08 | 44.66335 | 26.13745 | 5182 ft | 184 kts | 323° |
| 2026-05-07 18:08 | 44.67406 | 26.12757 | 5584 ft | 184 kts | 323° |
| 2026-05-07 18:09 | 44.68481 | 26.11774 | 5979 ft | 185 kts | 323° |
| 2026-05-07 18:09 | 44.69563 | 26.10798 | 6364 ft | 185 kts | 323° |
| 2026-05-07 18:09 | 44.70650 | 26.09827 | 6711 ft | 186 kts | 323° |
| 2026-05-07 18:09 | 44.71745 | 26.08852 | 7049 ft | 187 kts | 323° |
| 2026-05-07 18:10 | 44.72848 | 26.07871 | 7386 ft | 188 kts | 323° |
| 2026-05-07 18:10 | 44.73584 | 26.07220 | 7618 ft | 189 kts | 323° |
| 2026-05-07 18:10 | 44.74713 | 26.06270 | 7927 ft | 190 kts | 332° |
| 2026-05-07 18:10 | 44.76034 | 26.05873 | 8194 ft | 195 kts | 340° |
| 2026-05-07 18:11 | 44.77596 | 26.04723 | 8551 ft | 193 kts | 326° |
| 2026-05-07 18:11 | 44.78393 | 26.04099 | 8775 ft | 194 kts | 327° |
| 2026-05-07 18:11 | 44.79977 | 26.02985 | 9205 ft | 197 kts | 330° |
| 2026-05-07 18:11 | 44.81234 | 26.02188 | 9531 ft | 199 kts | 332° |
| 2026-05-07 18:12 | 44.82092 | 26.01655 | 9758 ft | 200 kts | 332° |
| 2026-05-07 18:12 | 44.83350 | 26.00873 | 10055 ft | 201 kts | 332° |
| 2026-05-07 18:12 | 44.84631 | 26.00073 | 10339 ft | 202 kts | 332° |
| 2026-05-07 18:12 | 44.85917 | 25.99267 | 10631 ft | 203 kts | 332° |
| 2026-05-07 18:13 | 44.87213 | 25.98456 | 10917 ft | 204 kts | 332° |
| 2026-05-07 18:13 | 44.88523 | 25.97642 | 11177 ft | 207 kts | 332° |
| 2026-05-07 18:13 | 44.89853 | 25.96831 | 11456 ft | 209 kts | 333° |
| 2026-05-07 18:13 | 44.91189 | 25.96013 | 11741 ft | 210 kts | 332° |
| 2026-05-07 18:14 | 44.92529 | 25.95185 | 12012 ft | 211 kts | 332° |
| 2026-05-07 18:14 | 44.93871 | 25.94345 | 12290 ft | 212 kts | 332° |
| 2026-05-07 18:14 | 44.95220 | 25.93495 | 12566 ft | 213 kts | 332° |
| 2026-05-07 18:14 | 44.96577 | 25.92641 | 12844 ft | 214 kts | 333° |
| 2026-05-07 18:15 | 44.97939 | 25.91785 | 13115 ft | 215 kts | 333° |
| 2026-05-07 18:15 | 44.99307 | 25.90923 | 13387 ft | 216 kts | 333° |
| 2026-05-07 18:15 | 45.00682 | 25.90060 | 13648 ft | 217 kts | 334° |
| 2026-05-07 18:15 | 45.02065 | 25.89193 | 13894 ft | 218 kts | 334° |
| 2026-05-07 18:16 | 45.03450 | 25.88327 | 14126 ft | 218 kts | 334° |
| 2026-05-07 18:16 | 45.04839 | 25.87456 | 14364 ft | 218 kts | 334° |
| 2026-05-07 18:16 | 45.06230 | 25.86582 | 14603 ft | 219 kts | 334° |
| 2026-05-07 18:16 | 45.07623 | 25.85707 | 14835 ft | 219 kts | 333° |
| 2026-05-07 18:17 | 45.09017 | 25.84830 | 15067 ft | 219 kts | 333° |
| 2026-05-07 18:17 | 45.10415 | 25.83948 | 15288 ft | 220 kts | 333° |
| 2026-05-07 18:17 | 45.11812 | 25.83067 | 15510 ft | 220 kts | 333° |
| 2026-05-07 18:17 | 45.13212 | 25.82183 | 15727 ft | 221 kts | 333° |
| 2026-05-07 18:18 | 45.14616 | 25.81297 | 15912 ft | 223 kts | 333° |
| 2026-05-07 18:18 | 45.16054 | 25.80391 | 15981 ft | 229 kts | 333° |
| 2026-05-07 18:18 | 45.17514 | 25.79468 | 16018 ft | 236 kts | 333° |
| 2026-05-07 18:18 | 45.19037 | 25.78504 | 16034 ft | 243 kts | 333° |
| 2026-05-07 18:19 | 45.20595 | 25.77516 | 16046 ft | 248 kts | 333° |
| 2026-05-07 18:19 | 45.22183 | 25.76509 | 16052 ft | 252 kts | 333° |
| 2026-05-07 18:19 | 45.23801 | 25.75486 | 16054 ft | 256 kts | 332° |
| 2026-05-07 18:19 | 45.25441 | 25.74458 | 16052 ft | 259 kts | 333° |
| 2026-05-07 18:20 | 45.27085 | 25.73399 | 16055 ft | 261 kts | 333° |
| 2026-05-07 18:20 | 45.28750 | 25.72341 | 16048 ft | 262 kts | 331° |
| 2026-05-07 18:20 | 45.30419 | 25.71288 | 16049 ft | 263 kts | 333° |
| 2026-05-07 18:20 | 45.32089 | 25.70224 | 16050 ft | 263 kts | 332° |
| 2026-05-07 18:21 | 45.33762 | 25.69166 | 16048 ft | 263 kts | 332° |
| 2026-05-07 18:21 | 45.35441 | 25.68109 | 16051 ft | 264 kts | 334° |
| 2026-05-07 18:21 | 45.37113 | 25.67039 | 16057 ft | 264 kts | 333° |
| 2026-05-07 18:21 | 45.38797 | 25.65974 | 16058 ft | 265 kts | 333° |
| 2026-05-07 18:22 | 45.40479 | 25.64901 | 16062 ft | 265 kts | 333° |
| 2026-05-07 18:22 | 45.41591 | 25.64183 | 16065 ft | 266 kts | 332° |
| 2026-05-07 18:22 | 45.43829 | 25.62757 | 16046 ft | 266 kts | 333° |
| 2026-05-07 18:22 | 45.45518 | 25.61672 | 16051 ft | 266 kts | 332° |
| 2026-05-07 18:23 | 45.47212 | 25.60597 | 16053 ft | 267 kts | 332° |
| 2026-05-07 18:23 | 45.48905 | 25.59525 | 16036 ft | 266 kts | 333° |
| 2026-05-07 18:23 | 45.50596 | 25.58450 | 16052 ft | 266 kts | 333° |
| 2026-05-07 18:23 | 45.52283 | 25.57376 | 16044 ft | 266 kts | 333° |
| 2026-05-07 18:24 | 45.53968 | 25.56298 | 16042 ft | 265 kts | 333° |
| 2026-05-07 18:24 | 45.55652 | 25.55220 | 16044 ft | 265 kts | 333° |
| 2026-05-07 18:24 | 45.57337 | 25.54138 | 16046 ft | 266 kts | 333° |
| 2026-05-07 18:24 | 45.59028 | 25.53052 | 16043 ft | 266 kts | 333° |
| 2026-05-07 18:25 | 45.60718 | 25.51966 | 16037 ft | 266 kts | 333° |
| 2026-05-07 18:25 | 45.62403 | 25.50884 | 16040 ft | 266 kts | 333° |
| 2026-05-07 18:25 | 45.64090 | 25.49795 | 16028 ft | 266 kts | 333° |
| 2026-05-07 18:25 | 45.65774 | 25.48712 | 16028 ft | 266 kts | 333° |
| 2026-05-07 18:26 | 45.67461 | 25.47625 | 16030 ft | 266 kts | 333° |
| 2026-05-07 18:26 | 45.69148 | 25.46540 | 16036 ft | 266 kts | 332° |
| 2026-05-07 18:26 | 45.70834 | 25.45446 | 16051 ft | 266 kts | 332° |
| 2026-05-07 18:26 | 45.72527 | 25.44355 | 16050 ft | 267 kts | 332° |
| 2026-05-07 18:27 | 45.74218 | 25.43262 | 16052 ft | 267 kts | 332° |
| 2026-05-07 18:27 | 45.75910 | 25.42168 | 16050 ft | 267 kts | 333° |
| 2026-05-07 18:27 | 45.77602 | 25.41077 | 16047 ft | 267 kts | 333° |
| 2026-05-07 18:27 | 45.79293 | 25.39981 | 16046 ft | 267 kts | 332° |
| 2026-05-07 18:28 | 45.80986 | 25.38885 | 16046 ft | 267 kts | 333° |
| 2026-05-07 18:28 | 45.82681 | 25.37786 | 16036 ft | 267 kts | 333° |
| 2026-05-07 18:28 | 45.84376 | 25.36688 | 16038 ft | 267 kts | 333° |
| 2026-05-07 18:28 | 45.86066 | 25.35590 | 16032 ft | 267 kts | 333° |
| 2026-05-07 18:29 | 45.87757 | 25.34493 | 16033 ft | 267 kts | 332° |
| 2026-05-07 18:29 | 45.89429 | 25.33405 | 16033 ft | 267 kts | 333° |
| 2026-05-07 18:29 | 45.91146 | 25.32288 | 16024 ft | 267 kts | 332° |
| 2026-05-07 18:29 | 45.92819 | 25.31198 | 16008 ft | 267 kts | 333° |
| 2026-05-07 18:30 | 45.94510 | 25.30100 | 16015 ft | 267 kts | 333° |
| 2026-05-07 18:30 | 45.96203 | 25.28996 | 16014 ft | 268 kts | 332° |
| 2026-05-07 18:30 | 45.97897 | 25.27886 | 16011 ft | 268 kts | 332° |
| 2026-05-07 18:30 | 45.99595 | 25.26777 | 16007 ft | 268 kts | 332° |
| 2026-05-07 18:31 | 46.01297 | 25.25670 | 15971 ft | 270 kts | 332° |
| 2026-05-07 18:31 | 46.03055 | 25.24521 | 15558 ft | 285 kts | 332° |
| 2026-05-07 18:31 | 46.04871 | 25.23334 | 15398 ft | 287 kts | 333° |
| 2026-05-07 18:31 | 46.06687 | 25.22145 | 15291 ft | 287 kts | 332° |
| 2026-05-07 18:32 | 46.08502 | 25.20957 | 15203 ft | 287 kts | 332° |
| 2026-05-07 18:32 | 46.10321 | 25.19768 | 15111 ft | 287 kts | 332° |
| 2026-05-07 18:32 | 46.12131 | 25.18579 | 15019 ft | 286 kts | 333° |
| 2026-05-07 18:32 | 46.13938 | 25.17394 | 14940 ft | 286 kts | 332° |
| 2026-05-07 18:33 | 46.15766 | 25.16191 | 14673 ft | 292 kts | 332° |
| 2026-05-07 18:33 | 46.17647 | 25.14953 | 14311 ft | 301 kts | 333° |
| 2026-05-07 18:33 | 46.19572 | 25.13689 | 13967 ft | 307 kts | 333° |
| 2026-05-07 18:33 | 46.21506 | 25.12420 | 13672 ft | 310 kts | 333° |
| 2026-05-07 18:34 | 46.23495 | 25.11108 | 13350 ft | 311 kts | 333° |
| 2026-05-07 18:34 | 46.25473 | 25.09805 | 13031 ft | 312 kts | 333° |
| 2026-05-07 18:34 | 46.27407 | 25.08528 | 12863 ft | 309 kts | 333° |
| 2026-05-07 18:34 | 46.29333 | 25.07254 | 12843 ft | 301 kts | 333° |
| 2026-05-07 18:35 | 46.31220 | 25.06008 | 12850 ft | 295 kts | 332° |
| 2026-05-07 18:35 | 46.33079 | 25.04779 | 12849 ft | 291 kts | 332° |
| 2026-05-07 18:35 | 46.34912 | 25.03563 | 12814 ft | 290 kts | 332° |
| 2026-05-07 18:35 | 46.36752 | 25.02347 | 12620 ft | 289 kts | 333° |
| 2026-05-07 18:36 | 46.38568 | 25.01143 | 12322 ft | 287 kts | 332° |
| 2026-05-07 18:36 | 46.40388 | 24.99937 | 11950 ft | 287 kts | 332° |
| 2026-05-07 18:36 | 46.42201 | 24.98727 | 11576 ft | 287 kts | 332° |
| 2026-05-07 18:36 | 46.44019 | 24.97523 | 11215 ft | 287 kts | 332° |
| 2026-05-07 18:37 | 46.45696 | 24.96052 | 10839 ft | 279 kts | 312° |
| 2026-05-07 18:37 | 46.46653 | 24.93705 | 10472 ft | 268 kts | 281° |
| 2026-05-07 18:37 | 46.46630 | 24.91102 | 10114 ft | 254 kts | 250° |
| 2026-05-07 18:37 | 46.45957 | 24.88809 | 9761 ft | 245 kts | 243° |
| 2026-05-07 18:38 | 46.45274 | 24.86549 | 9383 ft | 243 kts | 245° |
| 2026-05-07 18:38 | 46.44682 | 24.84259 | 8996 ft | 243 kts | 248° |
| 2026-05-07 18:38 | 46.44194 | 24.81919 | 8611 ft | 242 kts | 251° |
| 2026-05-07 18:38 | 46.43772 | 24.79567 | 8232 ft | 239 kts | 256° |
| 2026-05-07 18:39 | 46.43946 | 24.77195 | 7867 ft | 248 kts | 289° |
| 2026-05-07 18:39 | 46.45059 | 24.75273 | 7473 ft | 256 kts | 323° |
| 2026-05-07 18:39 | 46.46709 | 24.74328 | 7111 ft | 255 kts | 343° |
| 2026-05-07 18:39 | 46.48431 | 24.73738 | 6729 ft | 253 kts | 346° |
| 2026-05-07 18:40 | 46.50145 | 24.73183 | 6346 ft | 250 kts | 345° |
| 2026-05-07 18:40 | 46.51776 | 24.72364 | 5955 ft | 245 kts | 333° |
| 2026-05-07 18:40 | 46.53018 | 24.70799 | 5549 ft | 236 kts | 298° |
| 2026-05-07 18:40 | 46.53382 | 24.68561 | 5143 ft | 227 kts | 262° |
| 2026-05-07 18:41 | 46.52834 | 24.66474 | 4746 ft | 218 kts | 239° |
| 2026-05-07 18:41 | 46.52108 | 24.64567 | 4344 ft | 214 kts | 240° |
| 2026-05-07 18:41 | 46.51428 | 24.62666 | 3940 ft | 211 kts | 244° |
| 2026-05-07 18:41 | 46.50839 | 24.60778 | 3720 ft | 199 kts | 248° |
| 2026-05-07 18:42 | 46.50348 | 24.58952 | 3464 ft | 190 kts | 249° |
| 2026-05-07 18:42 | 46.49887 | 24.57187 | 3198 ft | 184 kts | 251° |
| 2026-05-07 18:42 | 46.49510 | 24.55520 | 3004 ft | 170 kts | 254° |
| 2026-05-07 18:42 | 46.49190 | 24.53918 | 2760 ft | 162 kts | 255° |
| 2026-05-07 18:43 | 46.48894 | 24.52380 | 2517 ft | 153 kts | 255° |
| 2026-05-07 18:43 | 46.48653 | 24.50978 | 2436 ft | 129 kts | 258° |
| 2026-05-07 18:43 | 46.48450 | 24.49769 | 2238 ft | 122 kts | 255° |
| 2026-05-07 18:43 | 46.48228 | 24.48595 | 2055 ft | 119 kts | 255° |
| 2026-05-07 18:44 | 46.48000 | 24.47455 | 1864 ft | 118 kts | 255° |
| 2026-05-07 18:44 | 46.47771 | 24.46315 | 1694 ft | 118 kts | 254° |
| 2026-05-07 18:44 | 46.47545 | 24.45169 | 1461 ft | 117 kts | 255° |
| 2026-05-07 18:44 | 46.47320 | 24.44036 | 1252 ft | 117 kts | 254° |
| 2026-05-07 18:45 | 46.47101 | 24.42925 | 1067 ft | 112 kts | 253° |
| 2026-05-07 18:45 | 46.46901 | 24.41891 | 967 ft | 84 kts | 255° |
| 2026-05-07 18:45 | 46.46782 | 24.41281 | 968 ft | 63 kts | 254° |
| 2026-05-07 18:45 | 46.46695 | 24.40842 | 968 ft | 27 kts | 253° |
| 2026-05-07 18:46 | 46.46653 | 24.40633 | 967 ft | 18 kts | 250° |
| 2026-05-07 18:46 | 46.46620 | 24.40484 | 966 ft | 14 kts | 266° |
| 2026-05-07 18:46 | 46.46618 | 24.40424 | 967 ft | 1 kts | 214° |
| 2026-05-07 18:46 | 46.46616 | 24.40435 | 967 ft | 2 kts | 94° |
| 2026-05-07 18:47 | 46.46632 | 24.40518 | 966 ft | 13 kts | 75° |
| 2026-05-07 18:47 | 46.46659 | 24.40653 | 966 ft | 14 kts | 74° |
| 2026-05-07 18:47 | 46.46686 | 24.40792 | 966 ft | 14 kts | 76° |
| 2026-05-07 18:47 | 46.46712 | 24.40928 | 964 ft | 14 kts | 74° |
| 2026-05-07 18:48 | 46.46740 | 24.41067 | 965 ft | 14 kts | 72° |
| 2026-05-07 18:48 | 46.46766 | 24.41205 | 965 ft | 14 kts | 75° |
| 2026-05-07 18:48 | 46.46794 | 24.41341 | 968 ft | 14 kts | 74° |
| 2026-05-07 18:48 | 46.46820 | 24.41474 | 967 ft | 13 kts | 74° |
| 2026-05-07 18:49 | 46.46844 | 24.41599 | 968 ft | 13 kts | 74° |
| 2026-05-07 18:49 | 46.46869 | 24.41726 | 965 ft | 14 kts | 74° |
| 2026-05-07 18:49 | 46.46895 | 24.41864 | 965 ft | 14 kts | 75° |
| 2026-05-07 18:49 | 46.46921 | 24.41992 | 966 ft | 13 kts | 74° |
| 2026-05-07 18:50 | 46.46946 | 24.42119 | 968 ft | 14 kts | 75° |
| 2026-05-07 18:50 | 46.46952 | 24.42199 | 965 ft | 4 kts | 104° |
| 2026-05-07 18:50 | 46.46930 | 24.42243 | 967 ft | 6 kts | 147° |
| 2026-05-07 18:50 | 46.46884 | 24.42261 | 967 ft | 8 kts | 164° |
| 2026-05-07 18:51 | 46.46871 | 24.42267 | 969 ft | 0 kts | 163° |
| 2026-05-07 18:51 | 46.46853 | 24.42275 | 967 ft | 3 kts | 161° |
| 2026-05-07 18:51 | 46.46837 | 24.42303 | 969 ft | 5 kts | 103° |
| 2026-05-07 18:52 | 46.46845 | 24.42352 | 969 ft | 4 kts | 73° |
| 2026-05-07 18:52 | 46.46832 | 24.42378 | 966 ft | 4 kts | 163° |
| 2026-05-07 18:52 | 46.46812 | 24.42385 | 967 ft | 2 kts | 169° |
| 2026-05-07 18:52 | 46.46795 | 24.42379 | 969 ft | 2 kts | 220° |
| 2026-05-07 18:53 | 46.46796 | 24.42359 | 969 ft | 2 kts | 300° |
| 2026-05-07 18:53 | 46.46806 | 24.42356 | 969 ft | 0 kts | 346° |